sensor_id;sensor_type;location;lat;lon;timestamp;P1;durP1;ratioP1;P2;durP2;ratioP2
58972;SDS011;44750;52.040;7.472;2023-10-13T00:02:31;13.55;;;11.95;;
58972;SDS011;44750;52.040;7.472;2023-10-13T00:07:31;13.18;;;10.85;;
58972;SDS011;44750;52.040;7.472;2023-10-13T00:12:32;14.65;;;11.38;;
58972;SDS011;44750;52.040;7.472;2023-10-13T00:17:32;14.23;;;11.10;;
58972;SDS011;44750;52.040;7.472;2023-10-13T00:22:33;13.63;;;10.73;;
58972;SDS011;44750;52.040;7.472;2023-10-13T00:27:34;12.60;;;10.63;;
58972;SDS011;44750;52.040;7.472;2023-10-13T00:32:36;16.50;;;10.63;;
58972;SDS011;44750;52.040;7.472;2023-10-13T00:37:38;12.13;;;10.48;;
58972;SDS011;44750;52.040;7.472;2023-10-13T00:42:39;11.25;;;10.05;;
58972;SDS011;44750;52.040;7.472;2023-10-13T00:47:40;14.43;;;10.90;;
58972;SDS011;44750;52.040;7.472;2023-10-13T00:52:40;10.40;;;9.00;;
58972;SDS011;44750;52.040;7.472;2023-10-13T00:57:42;20.98;;;10.48;;
58972;SDS011;44750;52.040;7.472;2023-10-13T01:02:43;10.30;;;8.30;;
58972;SDS011;44750;52.040;7.472;2023-10-13T01:07:43;11.45;;;9.07;;
58972;SDS011;44750;52.040;7.472;2023-10-13T01:12:43;9.88;;;8.38;;
58972;SDS011;44750;52.040;7.472;2023-10-13T01:17:43;10.50;;;9.27;;
58972;SDS011;44750;52.040;7.472;2023-10-13T01:22:45;12.52;;;8.57;;
58972;SDS011;44750;52.040;7.472;2023-10-13T01:27:45;8.95;;;8.05;;
58972;SDS011;44750;52.040;7.472;2023-10-13T01:32:46;9.35;;;7.65;;
58972;SDS011;44750;52.040;7.472;2023-10-13T01:37:46;10.05;;;7.65;;
58972;SDS011;44750;52.040;7.472;2023-10-13T01:42:46;8.82;;;6.63;;
58972;SDS011;44750;52.040;7.472;2023-10-13T01:47:47;9.50;;;7.13;;
58972;SDS011;44750;52.040;7.472;2023-10-13T01:52:47;17.80;;;8.07;;
58972;SDS011;44750;52.040;7.472;2023-10-13T01:57:47;10.13;;;8.05;;
58972;SDS011;44750;52.040;7.472;2023-10-13T02:02:48;10.80;;;8.93;;
58972;SDS011;44750;52.040;7.472;2023-10-13T02:07:49;8.93;;;7.25;;
58972;SDS011;44750;52.040;7.472;2023-10-13T02:12:49;12.40;;;6.55;;
58972;SDS011;44750;52.040;7.472;2023-10-13T02:17:50;11.15;;;7.32;;
58972;SDS011;44750;52.040;7.472;2023-10-13T02:22:52;8.23;;;6.63;;
58972;SDS011;44750;52.040;7.472;2023-10-13T02:27:52;10.85;;;7.47;;
58972;SDS011;44750;52.040;7.472;2023-10-13T02:32:52;8.70;;;7.15;;
58972;SDS011;44750;52.040;7.472;2023-10-13T02:37:55;10.90;;;7.13;;
58972;SDS011;44750;52.040;7.472;2023-10-13T02:42:56;15.85;;;7.72;;
58972;SDS011;44750;52.040;7.472;2023-10-13T02:47:57;15.07;;;8.27;;
58972;SDS011;44750;52.040;7.472;2023-10-13T02:52:57;12.40;;;8.93;;
58972;SDS011;44750;52.040;7.472;2023-10-13T02:57:58;8.82;;;7.57;;
58972;SDS011;44750;52.040;7.472;2023-10-13T03:02:58;8.80;;;7.03;;
58972;SDS011;44750;52.040;7.472;2023-10-13T03:07:58;8.70;;;7.75;;
58972;SDS011;44750;52.040;7.472;2023-10-13T03:12:59;10.25;;;6.72;;
58972;SDS011;44750;52.040;7.472;2023-10-13T03:17:59;10.93;;;7.97;;
58972;SDS011;44750;52.040;7.472;2023-10-13T03:22:59;12.45;;;9.90;;
58972;SDS011;44750;52.040;7.472;2023-10-13T03:28:04;9.52;;;8.07;;
58972;SDS011;44750;52.040;7.472;2023-10-13T03:33:08;6.75;;;5.88;;
58972;SDS011;44750;52.040;7.472;2023-10-13T03:38:09;8.07;;;6.85;;
58972;SDS011;44750;52.040;7.472;2023-10-13T03:43:10;7.95;;;6.25;;
58972;SDS011;44750;52.040;7.472;2023-10-13T03:48:13;17.95;;;6.93;;
58972;SDS011;44750;52.040;7.472;2023-10-13T03:53:15;7.63;;;6.53;;
58972;SDS011;44750;52.040;7.472;2023-10-13T03:58:15;7.72;;;6.55;;
58972;SDS011;44750;52.040;7.472;2023-10-13T04:03:15;9.57;;;7.13;;
58972;SDS011;44750;52.040;7.472;2023-10-13T04:08:15;10.98;;;8.18;;
58972;SDS011;44750;52.040;7.472;2023-10-13T04:13:16;9.88;;;8.02;;
58972;SDS011;44750;52.040;7.472;2023-10-13T04:18:16;13.70;;;9.48;;
58972;SDS011;44750;52.040;7.472;2023-10-13T04:23:16;10.48;;;9.35;;
58972;SDS011;44750;52.040;7.472;2023-10-13T04:28:16;13.75;;;10.40;;
58972;SDS011;44750;52.040;7.472;2023-10-13T04:33:17;11.82;;;9.90;;
58972;SDS011;44750;52.040;7.472;2023-10-13T04:38:17;10.20;;;9.20;;
58972;SDS011;44750;52.040;7.472;2023-10-13T04:43:17;8.48;;;7.68;;
58972;SDS011;44750;52.040;7.472;2023-10-13T04:48:17;10.05;;;7.60;;
58972;SDS011;44750;52.040;7.472;2023-10-13T04:53:18;9.32;;;7.82;;
58972;SDS011;44750;52.040;7.472;2023-10-13T04:58:18;7.35;;;5.97;;
58972;SDS011;44750;52.040;7.472;2023-10-13T05:03:18;8.05;;;6.32;;
58972;SDS011;44750;52.040;7.472;2023-10-13T05:08:19;12.25;;;6.70;;
58972;SDS011;44750;52.040;7.472;2023-10-13T05:13:19;7.07;;;5.10;;
58972;SDS011;44750;52.040;7.472;2023-10-13T05:18:22;5.28;;;4.30;;
58972;SDS011;44750;52.040;7.472;2023-10-13T05:23:23;8.00;;;4.55;;
58972;SDS011;44750;52.040;7.472;2023-10-13T05:28:24;6.40;;;4.50;;
58972;SDS011;44750;52.040;7.472;2023-10-13T05:33:24;7.25;;;5.47;;
58972;SDS011;44750;52.040;7.472;2023-10-13T05:38:27;8.75;;;5.45;;
58972;SDS011;44750;52.040;7.472;2023-10-13T05:43:27;9.20;;;6.70;;
58972;SDS011;44750;52.040;7.472;2023-10-13T05:48:27;7.47;;;6.70;;
58972;SDS011;44750;52.040;7.472;2023-10-13T05:53:30;11.77;;;7.95;;
58972;SDS011;44750;52.040;7.472;2023-10-13T05:58:31;11.70;;;8.38;;
58972;SDS011;44750;52.040;7.472;2023-10-13T06:03:31;11.00;;;9.18;;
58972;SDS011;44750;52.040;7.472;2023-10-13T06:08:34;9.68;;;8.65;;
58972;SDS011;44750;52.040;7.472;2023-10-13T06:13:34;11.73;;;9.00;;
58972;SDS011;44750;52.040;7.472;2023-10-13T06:18:35;10.05;;;8.68;;
58972;SDS011;44750;52.040;7.472;2023-10-13T06:23:35;9.00;;;7.55;;
58972;SDS011;44750;52.040;7.472;2023-10-13T06:28:35;9.85;;;6.80;;
58972;SDS011;44750;52.040;7.472;2023-10-13T06:33:35;6.88;;;6.18;;
58972;SDS011;44750;52.040;7.472;2023-10-13T06:38:36;6.90;;;5.97;;
58972;SDS011;44750;52.040;7.472;2023-10-13T06:43:37;4.63;;;4.18;;
58972;SDS011;44750;52.040;7.472;2023-10-13T06:48:37;6.88;;;5.03;;
58972;SDS011;44750;52.040;7.472;2023-10-13T06:53:38;7.47;;;5.43;;
58972;SDS011;44750;52.040;7.472;2023-10-13T06:58:38;6.53;;;4.70;;
58972;SDS011;44750;52.040;7.472;2023-10-13T07:03:38;5.95;;;5.00;;
58972;SDS011;44750;52.040;7.472;2023-10-13T07:08:38;6.97;;;4.72;;
58972;SDS011;44750;52.040;7.472;2023-10-13T07:13:39;8.10;;;5.03;;
58972;SDS011;44750;52.040;7.472;2023-10-13T07:18:39;6.27;;;4.67;;
58972;SDS011;44750;52.040;7.472;2023-10-13T07:23:39;5.28;;;3.40;;
58972;SDS011;44750;52.040;7.472;2023-10-13T07:28:39;5.07;;;3.55;;
58972;SDS011;44750;52.040;7.472;2023-10-13T07:33:40;5.40;;;4.20;;
58972;SDS011;44750;52.040;7.472;2023-10-13T07:38:47;5.32;;;3.88;;
58972;SDS011;44750;52.040;7.472;2023-10-13T07:43:47;5.05;;;4.03;;
58972;SDS011;44750;52.040;7.472;2023-10-13T07:48:47;8.25;;;4.25;;
58972;SDS011;44750;52.040;7.472;2023-10-13T07:53:48;5.30;;;4.65;;
58972;SDS011;44750;52.040;7.472;2023-10-13T07:58:48;5.75;;;5.15;;
58972;SDS011;44750;52.040;7.472;2023-10-13T08:03:48;5.78;;;5.18;;
58972;SDS011;44750;52.040;7.472;2023-10-13T08:08:49;8.00;;;6.70;;
58972;SDS011;44750;52.040;7.472;2023-10-13T08:13:49;7.82;;;5.38;;
58972;SDS011;44750;52.040;7.472;2023-10-13T08:18:51;8.68;;;5.55;;
58972;SDS011;44750;52.040;7.472;2023-10-13T08:23:52;7.97;;;5.07;;
58972;SDS011;44750;52.040;7.472;2023-10-13T08:28:53;5.77;;;4.57;;
58972;SDS011;44750;52.040;7.472;2023-10-13T08:33:56;5.07;;;3.90;;
58972;SDS011;44750;52.040;7.472;2023-10-13T08:38:56;8.15;;;4.28;;
58972;SDS011;44750;52.040;7.472;2023-10-13T08:43:59;8.85;;;3.97;;
58972;SDS011;44750;52.040;7.472;2023-10-13T08:49:02;5.85;;;3.13;;
58972;SDS011;44750;52.040;7.472;2023-10-13T08:54:03;6.07;;;3.53;;
58972;SDS011;44750;52.040;7.472;2023-10-13T08:59:04;6.72;;;3.40;;
58972;SDS011;44750;52.040;7.472;2023-10-13T09:09:13;8.43;;;3.67;;
58972;SDS011;44750;52.040;7.472;2023-10-13T09:14:14;11.68;;;4.05;;
58972;SDS011;44750;52.040;7.472;2023-10-13T09:19:15;9.40;;;4.05;;
58972;SDS011;44750;52.040;7.472;2023-10-13T09:24:15;6.25;;;3.70;;
58972;SDS011;44750;52.040;7.472;2023-10-13T09:29:17;7.70;;;3.75;;
58972;SDS011;44750;52.040;7.472;2023-10-13T09:34:21;6.10;;;3.33;;
58972;SDS011;44750;52.040;7.472;2023-10-13T09:39:25;4.80;;;3.05;;
58972;SDS011;44750;52.040;7.472;2023-10-13T09:44:27;5.97;;;3.00;;
58972;SDS011;44750;52.040;7.472;2023-10-13T09:49:27;4.00;;;2.53;;
58972;SDS011;44750;52.040;7.472;2023-10-13T09:54:34;8.23;;;3.17;;
58972;SDS011;44750;52.040;7.472;2023-10-13T09:59:44;7.68;;;3.10;;
58972;SDS011;44750;52.040;7.472;2023-10-13T10:04:54;5.15;;;3.00;;
58972;SDS011;44750;52.040;7.472;2023-10-13T10:09:55;4.20;;;2.90;;
58972;SDS011;44750;52.040;7.472;2023-10-13T10:20:30;16.83;;;3.90;;
58972;SDS011;44750;52.040;7.472;2023-10-13T10:25:34;7.40;;;4.60;;
58972;SDS011;44750;52.040;7.472;2023-10-13T10:30:37;6.38;;;3.28;;
58972;SDS011;44750;52.040;7.472;2023-10-13T10:35:39;7.15;;;3.63;;
58972;SDS011;44750;52.040;7.472;2023-10-13T10:40:54;6.05;;;3.05;;
58972;SDS011;44750;52.040;7.472;2023-10-13T10:45:56;6.93;;;3.70;;
58972;SDS011;44750;52.040;7.472;2023-10-13T10:50:57;6.65;;;3.60;;
58972;SDS011;44750;52.040;7.472;2023-10-13T10:56:03;5.35;;;2.88;;
58972;SDS011;44750;52.040;7.472;2023-10-13T11:01:05;6.25;;;2.20;;
58972;SDS011;44750;52.040;7.472;2023-10-13T11:06:06;11.55;;;3.72;;
58972;SDS011;44750;52.040;7.472;2023-10-13T11:11:07;10.43;;;4.20;;
58972;SDS011;44750;52.040;7.472;2023-10-13T11:16:07;6.53;;;2.83;;
58972;SDS011;44750;52.040;7.472;2023-10-13T11:21:07;10.30;;;3.03;;
58972;SDS011;44750;52.040;7.472;2023-10-13T11:26:08;8.80;;;3.60;;
58972;SDS011;44750;52.040;7.472;2023-10-13T11:31:08;6.90;;;2.93;;
58972;SDS011;44750;52.040;7.472;2023-10-13T11:36:08;5.55;;;2.92;;
58972;SDS011;44750;52.040;7.472;2023-10-13T11:41:08;5.28;;;3.05;;
58972;SDS011;44750;52.040;7.472;2023-10-13T11:46:13;6.22;;;3.25;;
58972;SDS011;44750;52.040;7.472;2023-10-13T11:51:15;5.57;;;3.22;;
58972;SDS011;44750;52.040;7.472;2023-10-13T11:56:15;9.07;;;3.50;;
58972;SDS011;44750;52.040;7.472;2023-10-13T12:01:16;18.73;;;4.35;;
58972;SDS011;44750;52.040;7.472;2023-10-13T12:06:17;5.95;;;3.50;;
58972;SDS011;44750;52.040;7.472;2023-10-13T12:11:18;6.82;;;3.63;;
58972;SDS011;44750;52.040;7.472;2023-10-13T12:16:19;16.17;;;9.63;;
58972;SDS011;44750;52.040;7.472;2023-10-13T12:21:19;8.25;;;3.90;;
58972;SDS011;44750;52.040;7.472;2023-10-13T12:26:20;8.05;;;3.35;;
58972;SDS011;44750;52.040;7.472;2023-10-13T12:31:20;5.35;;;3.42;;
58972;SDS011;44750;52.040;7.472;2023-10-13T12:36:20;5.33;;;3.33;;
58972;SDS011;44750;52.040;7.472;2023-10-13T12:41:21;8.07;;;3.40;;
58972;SDS011;44750;52.040;7.472;2023-10-13T12:46:21;8.30;;;3.42;;
58972;SDS011;44750;52.040;7.472;2023-10-13T12:51:21;6.85;;;3.30;;
58972;SDS011;44750;52.040;7.472;2023-10-13T12:56:22;5.53;;;3.25;;
58972;SDS011;44750;52.040;7.472;2023-10-13T13:01:25;7.00;;;3.30;;
58972;SDS011;44750;52.040;7.472;2023-10-13T13:06:26;4.63;;;3.15;;
58972;SDS011;44750;52.040;7.472;2023-10-13T13:11:26;15.00;;;4.55;;
58972;SDS011;44750;52.040;7.472;2023-10-13T13:16:26;9.93;;;3.43;;
58972;SDS011;44750;52.040;7.472;2023-10-13T13:21:27;7.35;;;3.75;;
58972;SDS011;44750;52.040;7.472;2023-10-13T13:26:27;4.50;;;2.83;;
58972;SDS011;44750;52.040;7.472;2023-10-13T13:31:27;8.63;;;3.83;;
58972;SDS011;44750;52.040;7.472;2023-10-13T13:36:27;9.60;;;3.72;;
58972;SDS011;44750;52.040;7.472;2023-10-13T13:41:30;5.10;;;2.80;;
58972;SDS011;44750;52.040;7.472;2023-10-13T13:46:30;10.87;;;4.27;;
58972;SDS011;44750;52.040;7.472;2023-10-13T13:51:31;6.60;;;3.25;;
58972;SDS011;44750;52.040;7.472;2023-10-13T13:56:31;5.68;;;2.80;;
58972;SDS011;44750;52.040;7.472;2023-10-13T14:01:31;5.30;;;3.28;;
58972;SDS011;44750;52.040;7.472;2023-10-13T14:06:32;10.30;;;3.80;;
58972;SDS011;44750;52.040;7.472;2023-10-13T14:11:32;9.48;;;3.38;;
58972;SDS011;44750;52.040;7.472;2023-10-13T14:16:34;6.55;;;3.47;;
58972;SDS011;44750;52.040;7.472;2023-10-13T14:21:34;8.88;;;3.30;;
58972;SDS011;44750;52.040;7.472;2023-10-13T14:26:34;11.77;;;3.08;;
58972;SDS011;44750;52.040;7.472;2023-10-13T14:31:35;6.32;;;3.00;;
58972;SDS011;44750;52.040;7.472;2023-10-13T14:36:36;6.13;;;3.15;;
58972;SDS011;44750;52.040;7.472;2023-10-13T14:41:37;7.63;;;3.08;;
58972;SDS011;44750;52.040;7.472;2023-10-13T14:46:38;8.35;;;3.40;;
58972;SDS011;44750;52.040;7.472;2023-10-13T14:51:38;6.13;;;3.28;;
58972;SDS011;44750;52.040;7.472;2023-10-13T14:56:38;12.20;;;3.65;;
58972;SDS011;44750;52.040;7.472;2023-10-13T15:01:38;5.75;;;2.75;;
58972;SDS011;44750;52.040;7.472;2023-10-13T15:06:38;5.38;;;2.95;;
58972;SDS011;44750;52.040;7.472;2023-10-13T15:11:39;9.07;;;3.53;;
58972;SDS011;44750;52.040;7.472;2023-10-13T15:16:40;9.63;;;3.45;;
58972;SDS011;44750;52.040;7.472;2023-10-13T15:21:40;6.80;;;2.78;;
58972;SDS011;44750;52.040;7.472;2023-10-13T15:26:41;10.25;;;3.83;;
58972;SDS011;44750;52.040;7.472;2023-10-13T15:31:42;7.93;;;3.15;;
58972;SDS011;44750;52.040;7.472;2023-10-13T15:36:45;5.45;;;2.90;;
58972;SDS011;44750;52.040;7.472;2023-10-13T15:41:45;12.57;;;3.55;;
58972;SDS011;44750;52.040;7.472;2023-10-13T15:46:46;10.77;;;3.47;;
58972;SDS011;44750;52.040;7.472;2023-10-13T15:51:48;10.55;;;3.67;;
58972;SDS011;44750;52.040;7.472;2023-10-13T15:56:50;10.75;;;3.30;;
58972;SDS011;44750;52.040;7.472;2023-10-13T16:01:51;5.25;;;2.90;;
58972;SDS011;44750;52.040;7.472;2023-10-13T16:06:51;24.95;;;3.67;;
58972;SDS011;44750;52.040;7.472;2023-10-13T16:11:52;4.43;;;2.60;;
58972;SDS011;44750;52.040;7.472;2023-10-13T16:16:53;9.07;;;4.07;;
58972;SDS011;44750;52.040;7.472;2023-10-13T16:21:54;8.10;;;3.03;;
58972;SDS011;44750;52.040;7.472;2023-10-13T16:26:54;5.03;;;3.00;;
58972;SDS011;44750;52.040;7.472;2023-10-13T16:31:54;6.10;;;2.70;;
58972;SDS011;44750;52.040;7.472;2023-10-13T16:36:54;4.70;;;2.75;;
58972;SDS011;44750;52.040;7.472;2023-10-13T16:41:55;7.07;;;3.97;;
58972;SDS011;44750;52.040;7.472;2023-10-13T16:46:55;4.28;;;2.72;;
58972;SDS011;44750;52.040;7.472;2023-10-13T16:51:55;10.15;;;3.22;;
58972;SDS011;44750;52.040;7.472;2023-10-13T16:56:55;4.60;;;2.58;;
58972;SDS011;44750;52.040;7.472;2023-10-13T17:01:55;13.15;;;3.65;;
58972;SDS011;44750;52.040;7.472;2023-10-13T17:06:57;7.85;;;3.50;;
58972;SDS011;44750;52.040;7.472;2023-10-13T17:11:57;6.50;;;3.03;;
58972;SDS011;44750;52.040;7.472;2023-10-13T17:16:58;6.03;;;4.07;;
58972;SDS011;44750;52.040;7.472;2023-10-13T17:21:58;15.63;;;3.17;;
58972;SDS011;44750;52.040;7.472;2023-10-13T17:26:59;14.48;;;3.50;;
58972;SDS011;44750;52.040;7.472;2023-10-13T17:32:03;7.13;;;3.25;;
58972;SDS011;44750;52.040;7.472;2023-10-13T17:37:03;5.28;;;3.00;;
58972;SDS011;44750;52.040;7.472;2023-10-13T17:42:04;8.73;;;3.20;;
58972;SDS011;44750;52.040;7.472;2023-10-13T17:47:04;8.30;;;3.50;;
58972;SDS011;44750;52.040;7.472;2023-10-13T17:52:06;6.67;;;2.80;;
58972;SDS011;44750;52.040;7.472;2023-10-13T17:57:06;21.98;;;3.20;;
58972;SDS011;44750;52.040;7.472;2023-10-13T18:02:06;4.45;;;2.67;;
58972;SDS011;44750;52.040;7.472;2023-10-13T18:07:07;16.98;;;4.18;;
58972;SDS011;44750;52.040;7.472;2023-10-13T18:12:07;5.80;;;3.13;;
58972;SDS011;44750;52.040;7.472;2023-10-13T18:17:08;5.93;;;3.63;;
58972;SDS011;44750;52.040;7.472;2023-10-13T18:22:08;5.32;;;3.45;;
58972;SDS011;44750;52.040;7.472;2023-10-13T18:27:09;8.55;;;2.95;;
58972;SDS011;44750;52.040;7.472;2023-10-13T18:32:10;31.55;;;3.97;;
58972;SDS011;44750;52.040;7.472;2023-10-13T18:37:14;6.53;;;3.88;;
58972;SDS011;44750;52.040;7.472;2023-10-13T18:42:15;7.72;;;4.07;;
58972;SDS011;44750;52.040;7.472;2023-10-13T18:47:16;6.65;;;3.60;;
58972;SDS011;44750;52.040;7.472;2023-10-13T18:52:16;9.75;;;3.85;;
58972;SDS011;44750;52.040;7.472;2023-10-13T18:57:17;6.17;;;4.00;;
58972;SDS011;44750;52.040;7.472;2023-10-13T19:02:17;6.25;;;3.60;;
58972;SDS011;44750;52.040;7.472;2023-10-13T19:07:17;8.27;;;3.53;;
58972;SDS011;44750;52.040;7.472;2023-10-13T19:12:18;6.43;;;4.30;;
58972;SDS011;44750;52.040;7.472;2023-10-13T19:17:18;6.37;;;3.40;;
58972;SDS011;44750;52.040;7.472;2023-10-13T19:22:18;10.05;;;4.10;;
58972;SDS011;44750;52.040;7.472;2023-10-13T19:27:18;6.15;;;3.25;;
58972;SDS011;44750;52.040;7.472;2023-10-13T19:32:19;5.65;;;4.07;;
58972;SDS011;44750;52.040;7.472;2023-10-13T19:37:19;7.33;;;4.30;;
58972;SDS011;44750;52.040;7.472;2023-10-13T19:42:19;14.43;;;4.90;;
58972;SDS011;44750;52.040;7.472;2023-10-13T19:47:19;10.10;;;4.63;;
58972;SDS011;44750;52.040;7.472;2023-10-13T19:52:20;9.13;;;5.18;;
58972;SDS011;44750;52.040;7.472;2023-10-13T19:57:21;9.90;;;4.68;;
58972;SDS011;44750;52.040;7.472;2023-10-13T20:02:21;9.40;;;5.43;;
58972;SDS011;44750;52.040;7.472;2023-10-13T20:07:22;9.75;;;5.50;;
58972;SDS011;44750;52.040;7.472;2023-10-13T20:12:22;9.40;;;5.93;;
58972;SDS011;44750;52.040;7.472;2023-10-13T20:17:27;9.50;;;5.50;;
58972;SDS011;44750;52.040;7.472;2023-10-13T20:22:27;7.17;;;4.83;;
58972;SDS011;44750;52.040;7.472;2023-10-13T20:27:27;8.10;;;4.90;;
58972;SDS011;44750;52.040;7.472;2023-10-13T20:32:27;17.52;;;5.50;;
58972;SDS011;44750;52.040;7.472;2023-10-13T20:37:32;4.97;;;3.55;;
58972;SDS011;44750;52.040;7.472;2023-10-13T20:42:32;6.75;;;4.47;;
58972;SDS011;44750;52.040;7.472;2023-10-13T20:47:33;10.60;;;4.82;;
58972;SDS011;44750;52.040;7.472;2023-10-13T20:52:34;11.05;;;5.57;;
58972;SDS011;44750;52.040;7.472;2023-10-13T20:57:35;8.18;;;5.20;;
58972;SDS011;44750;52.040;7.472;2023-10-13T21:02:36;9.63;;;5.65;;
58972;SDS011;44750;52.040;7.472;2023-10-13T21:07:36;8.82;;;5.75;;
58972;SDS011;44750;52.040;7.472;2023-10-13T21:12:37;11.40;;;6.82;;
58972;SDS011;44750;52.040;7.472;2023-10-13T21:17:37;8.40;;;5.95;;
58972;SDS011;44750;52.040;7.472;2023-10-13T21:22:38;10.70;;;6.00;;
58972;SDS011;44750;52.040;7.472;2023-10-13T21:27:38;10.77;;;5.95;;
58972;SDS011;44750;52.040;7.472;2023-10-13T21:32:38;12.32;;;6.68;;
58972;SDS011;44750;52.040;7.472;2023-10-13T21:37:38;9.68;;;6.15;;
58972;SDS011;44750;52.040;7.472;2023-10-13T21:42:39;7.75;;;5.57;;
58972;SDS011;44750;52.040;7.472;2023-10-13T21:47:39;13.70;;;6.22;;
58972;SDS011;44750;52.040;7.472;2023-10-13T21:52:39;8.63;;;5.63;;
58972;SDS011;44750;52.040;7.472;2023-10-13T21:57:40;8.77;;;5.78;;
58972;SDS011;44750;52.040;7.472;2023-10-13T22:02:40;8.50;;;5.00;;
58972;SDS011;44750;52.040;7.472;2023-10-13T22:07:40;9.43;;;5.20;;
58972;SDS011;44750;52.040;7.472;2023-10-13T22:12:40;12.27;;;5.53;;
58972;SDS011;44750;52.040;7.472;2023-10-13T22:17:44;11.60;;;5.70;;
58972;SDS011;44750;52.040;7.472;2023-10-13T22:22:45;20.80;;;5.63;;
58972;SDS011;44750;52.040;7.472;2023-10-13T22:27:46;10.50;;;5.30;;
58972;SDS011;44750;52.040;7.472;2023-10-13T22:32:47;6.47;;;4.28;;
58972;SDS011;44750;52.040;7.472;2023-10-13T22:37:49;12.52;;;4.70;;
58972;SDS011;44750;52.040;7.472;2023-10-13T22:42:51;9.30;;;5.05;;
58972;SDS011;44750;52.040;7.472;2023-10-13T22:47:52;6.40;;;4.68;;
58972;SDS011;44750;52.040;7.472;2023-10-13T22:52:53;11.23;;;5.03;;
58972;SDS011;44750;52.040;7.472;2023-10-13T22:57:55;16.35;;;4.82;;
58972;SDS011;44750;52.040;7.472;2023-10-13T23:02:57;8.90;;;4.70;;
58972;SDS011;44750;52.040;7.472;2023-10-13T23:07:57;11.47;;;4.63;;
58972;SDS011;44750;52.040;7.472;2023-10-13T23:12:58;10.17;;;4.17;;
58972;SDS011;44750;52.040;7.472;2023-10-13T23:17:58;9.68;;;4.28;;
58972;SDS011;44750;52.040;7.472;2023-10-13T23:22:58;7.60;;;4.78;;
58972;SDS011;44750;52.040;7.472;2023-10-13T23:27:58;6.90;;;4.75;;
58972;SDS011;44750;52.040;7.472;2023-10-13T23:32:58;4.38;;;3.00;;
58972;SDS011;44750;52.040;7.472;2023-10-13T23:37:59;4.22;;;2.33;;
58972;SDS011;44750;52.040;7.472;2023-10-13T23:43:01;5.20;;;2.90;;
58972;SDS011;44750;52.040;7.472;2023-10-13T23:48:02;5.07;;;2.45;;
58972;SDS011;44750;52.040;7.472;2023-10-13T23:53:02;3.45;;;1.80;;
58972;SDS011;44750;52.040;7.472;2023-10-13T23:58:03;3.60;;;2.05;;
